createdAt,value
2023-03-14T00:01:24.449Z,98022.20
2023-03-14T00:03:52.692Z,98022.83
2023-03-14T00:06:21.443Z,98024.53
2023-03-14T00:08:49.890Z,98032.50
2023-03-14T00:11:19.808Z,98025.05
2023-03-14T00:13:51.991Z,98033.27
2023-03-14T00:16:20.576Z,98031.77
2023-03-14T00:18:49.722Z,98033.34
2023-03-14T00:21:36.800Z,98026.30
2023-03-14T00:24:07.079Z,98024.98
2023-03-14T00:26:35.491Z,98019.88
2023-03-14T00:29:06.628Z,98022.49
2023-03-14T00:31:37.250Z,98017.52
2023-03-14T00:34:05.834Z,98020.70
2023-03-14T00:36:35.368Z,98017.60
2023-03-14T00:39:04.407Z,98019.14
2023-03-14T00:41:37.483Z,98010.24
2023-03-14T00:44:05.661Z,98007.92
2023-03-14T00:46:33.863Z,98002.66
2023-03-14T00:49:02.152Z,98003.34
2023-03-14T00:51:30.759Z,98002.89
2023-03-14T00:54:01.562Z,98009.16
2023-03-14T00:56:29.786Z,98005.12
2023-03-14T00:59:02.079Z,97999.95
2023-03-14T01:01:30.744Z,97996.21
2023-03-14T01:03:59.224Z,97992.10
2023-03-14T01:06:28.331Z,97990.78
2023-03-14T01:08:58.520Z,97988.70
2023-03-14T01:11:32.164Z,97984.14
2023-03-14T01:14:00.536Z,97982.05
2023-03-14T01:16:34.035Z,97979.38
2023-03-14T01:19:05.111Z,97976.21
2023-03-14T01:21:35.085Z,97972.11
2023-03-14T01:24:05.024Z,97971.21
2023-03-14T01:26:36.147Z,97965.20
2023-03-14T01:29:05.202Z,97964.15
2023-03-14T01:31:34.837Z,97959.74
2023-03-14T01:34:05.881Z,97959.13
2023-03-14T01:36:34.947Z,97952.80
2023-03-14T01:39:10.119Z,97955.41
2023-03-14T01:41:39.024Z,97956.03
2023-03-14T01:44:13.307Z,97952.00
2023-03-14T01:46:43.284Z,97954.69
2023-03-14T01:49:32.146Z,97956.85
2023-03-14T01:52:22.052Z,97946.96
2023-03-14T01:54:55.726Z,97934.84
2023-03-14T01:57:31.238Z,97928.25
2023-03-14T02:00:22.135Z,97921.22
2023-03-14T02:03:06.260Z,97917.84
2023-03-14T02:05:39.536Z,97911.79
2023-03-14T02:08:15.072Z,97912.20
2023-03-14T02:10:50.751Z,97902.75
2023-03-14T02:13:24.765Z,97892.62
2023-03-14T02:16:11.871Z,97890.39
2023-03-14T02:19:06.192Z,97886.68
2023-03-14T02:22:05.013Z,97889.42
2023-03-14T02:24:44.805Z,97888.49
2023-03-14T02:27:35.070Z,97883.94
2023-03-14T02:30:07.045Z,97875.36
2023-03-14T02:32:37.717Z,97867.63
2023-03-14T02:35:09.504Z,97864.00
2023-03-14T02:37:44.901Z,97868.52
2023-03-14T02:40:13.419Z,97867.13
2023-03-14T02:42:42.298Z,97864.51
2023-03-14T02:45:17.497Z,97861.18
2023-03-14T02:47:55.179Z,97855.31
2023-03-14T02:50:26.031Z,97854.92
2023-03-14T02:52:55.786Z,97855.63
2023-03-14T02:55:24.656Z,97850.13
2023-03-14T02:57:54.422Z,97847.80
2023-03-14T03:00:22.901Z,97848.41
2023-03-14T03:02:51.111Z,97845.54
2023-03-14T03:05:19.669Z,97836.32
2023-03-14T03:07:47.834Z,97835.15
2023-03-14T03:10:19.054Z,97822.84
2023-03-14T03:12:49.677Z,97814.32
2023-03-14T03:15:18.583Z,97815.41
2023-03-14T03:17:48.300Z,97816.66
2023-03-14T03:20:17.197Z,97817.67
2023-03-14T03:22:45.314Z,97815.05
2023-03-14T03:25:13.636Z,97812.02
2023-03-14T03:27:42.152Z,97809.63
2023-03-14T03:30:12.036Z,97805.77
2023-03-14T03:32:40.798Z,97807.86
2023-03-14T03:35:11.574Z,97803.68
2023-03-14T03:37:40.155Z,97799.38
2023-03-14T03:40:09.353Z,97798.75
2023-03-14T03:42:38.307Z,97799.05
2023-03-14T03:45:09.420Z,97794.94
2023-03-14T03:47:41.115Z,97800.42
2023-03-14T03:50:10.142Z,97796.95
2023-03-14T03:52:38.520Z,97796.98
2023-03-14T03:55:07.265Z,97793.19
2023-03-14T03:57:35.945Z,97795.06
2023-03-14T04:00:06.416Z,97797.69
2023-03-14T04:02:42.612Z,97798.30
2023-03-14T04:05:17.496Z,97794.27
2023-03-14T04:08:02.575Z,97791.02
2023-03-14T04:10:35.462Z,97788.54
2023-03-14T04:13:09.314Z,97784.30
2023-03-14T04:15:40.002Z,97773.61
2023-03-14T04:18:25.932Z,97769.98
2023-03-14T04:20:58.234Z,97762.13
2023-03-14T04:23:34.607Z,97750.61
2023-03-14T04:26:03.702Z,97747.15
2023-03-14T04:28:37.718Z,97744.76
2023-03-14T04:31:09.672Z,97740.42
2023-03-14T04:33:38.500Z,97733.53
2023-03-14T04:36:07.329Z,97728.66
2023-03-14T04:38:35.967Z,97724.63
2023-03-14T04:41:05.978Z,97720.91
2023-03-14T04:43:36.306Z,97712.31
2023-03-14T04:46:13.605Z,97709.60
2023-03-14T04:48:42.001Z,97709.37
2023-03-14T04:51:11.057Z,97706.13
2023-03-14T04:53:41.287Z,97702.73
2023-03-14T04:56:17.639Z,97700.98
2023-03-14T04:58:46.825Z,97703.95
2023-03-14T05:01:18.895Z,97706.67
2023-03-14T05:03:50.735Z,97703.07
2023-03-14T05:06:31.625Z,97699.54
2023-03-14T05:09:08.606Z,97700.26
2023-03-14T05:11:55.824Z,97700.35
2023-03-14T05:14:40.472Z,97701.08
2023-03-14T05:17:12.619Z,97694.39
2023-03-14T05:20:00.048Z,97682.29
2023-03-14T05:22:42.639Z,97684.58
2023-03-14T05:25:44.518Z,97680.66
2023-03-14T05:28:31.595Z,97678.46
2023-03-14T05:31:33.120Z,97669.73
2023-03-14T05:34:34.967Z,97668.84
2023-03-14T05:37:21.691Z,97670.02
2023-03-14T05:40:12.500Z,97670.13
2023-03-14T05:42:51.076Z,97669.19
2023-03-14T05:45:38.374Z,97668.46
2023-03-14T05:48:18.172Z,97673.00
2023-03-14T05:51:09.397Z,97667.41
2023-03-14T05:54:00.652Z,97663.46
2023-03-14T05:56:51.757Z,97665.06
2023-03-14T05:59:35.280Z,97661.98
2023-03-14T06:02:36.109Z,97664.83
2023-03-14T06:05:12.880Z,97659.95
2023-03-14T06:07:41.839Z,97648.02
2023-03-14T06:10:10.781Z,97647.54
2023-03-14T06:12:40.093Z,97642.75
2023-03-14T06:15:10.085Z,97642.50
2023-03-14T06:17:38.497Z,97638.31
2023-03-14T06:20:11.690Z,97636.11
2023-03-14T06:22:41.481Z,97637.01
2023-03-14T06:25:19.407Z,97635.88
2023-03-14T06:27:57.236Z,97635.13
2023-03-14T06:30:25.689Z,97624.10
2023-03-14T06:32:54.721Z,97620.21
2023-03-14T06:35:25.173Z,97619.41
2023-03-14T06:37:54.009Z,97624.08
2023-03-14T06:40:22.293Z,97621.95
2023-03-14T06:42:59.701Z,97619.59
2023-03-14T06:45:29.353Z,97615.83
2023-03-14T06:47:59.306Z,97615.27
2023-03-14T06:50:35.455Z,97614.17
2023-03-14T06:53:05.963Z,97608.82
2023-03-14T06:55:35.665Z,97608.63
2023-03-14T06:58:04.044Z,97610.61
2023-03-14T07:00:34.091Z,97612.92
2023-03-14T07:03:02.515Z,97619.20
2023-03-14T07:05:40.045Z,97621.07
2023-03-14T07:08:09.627Z,97618.52
2023-03-14T07:10:37.900Z,97622.32
2023-03-14T07:13:10.285Z,97619.84
2023-03-14T07:15:49.111Z,97620.92
2023-03-14T07:18:17.960Z,97614.81
2023-03-14T07:20:53.264Z,97613.95
2023-03-14T07:23:22.630Z,97605.02
2023-03-14T07:25:54.978Z,97601.52
2023-03-14T07:28:28.317Z,97597.29
2023-03-14T07:31:03.846Z,97597.93
2023-03-14T07:35:10.410Z,97583.71
2023-03-14T07:37:40.182Z,97577.61
2023-03-14T07:40:12.427Z,97578.65
2023-03-14T07:42:43.124Z,97578.39
2023-03-14T07:45:25.407Z,97567.95
2023-03-14T07:47:53.565Z,97567.48
2023-03-14T07:50:21.682Z,97570.30
2023-03-14T07:52:50.599Z,97569.11
2023-03-14T07:55:19.049Z,97565.77
2023-03-14T07:57:47.128Z,97565.08
2023-03-14T08:00:16.087Z,97549.77
2023-03-14T08:02:44.438Z,97551.80
2023-03-14T08:05:13.163Z,97553.96
2023-03-14T08:07:41.388Z,97544.51
2023-03-14T08:10:23.338Z,97538.31
2023-03-14T08:12:52.385Z,97541.52
2023-03-14T08:15:20.386Z,97545.39
2023-03-14T08:17:52.459Z,97542.14
2023-03-14T08:20:26.563Z,97535.14
2023-03-14T08:22:59.831Z,97523.77
2023-03-14T08:25:28.450Z,97523.14
2023-03-14T08:27:56.812Z,97519.70
2023-03-14T08:30:26.292Z,97525.48
2023-03-14T08:32:59.102Z,97522.20
2023-03-14T08:35:27.632Z,97517.80
2023-03-14T08:38:00.555Z,97519.53
2023-03-14T08:40:29.109Z,97519.02
2023-03-14T08:43:00.495Z,97520.45
2023-03-14T08:45:29.456Z,97517.42
2023-03-14T08:47:59.154Z,97519.07
2023-03-14T08:50:27.636Z,97512.42
2023-03-14T08:52:56.146Z,97518.53
2023-03-14T08:55:24.230Z,97517.29
2023-03-14T08:57:52.553Z,97511.89
2023-03-14T09:00:27.373Z,97505.14
2023-03-14T09:02:55.537Z,97493.86
2023-03-14T09:05:23.591Z,97493.95
2023-03-14T09:07:53.131Z,97489.23
2023-03-14T09:10:21.440Z,97484.52
2023-03-14T09:12:49.974Z,97486.83
2023-03-14T09:15:18.180Z,97492.33
2023-03-14T09:17:47.285Z,97485.85
2023-03-14T09:20:15.481Z,97483.72
2023-03-14T09:22:43.746Z,97482.21
2023-03-14T09:25:12.486Z,97481.45
2023-03-14T09:27:42.145Z,97476.41
2023-03-14T09:30:11.027Z,97483.77
2023-03-14T09:34:19.102Z,97483.43
2023-03-14T09:36:47.304Z,97491.36
2023-03-14T09:39:16.530Z,97493.05
2023-03-14T09:41:47.500Z,97499.21
2023-03-14T09:44:34.152Z,97499.75
2023-03-14T09:47:08.927Z,97509.89
2023-03-14T09:49:40.280Z,97507.29
2023-03-14T09:52:34.114Z,97505.72
2023-03-14T09:55:08.547Z,97501.17
2023-03-14T09:57:36.907Z,97491.27
2023-03-14T10:00:15.506Z,97490.09
2023-03-14T10:02:47.529Z,97488.35
2023-03-14T10:05:17.560Z,97475.35
2023-03-14T10:07:46.380Z,97481.48
2023-03-14T10:10:17.323Z,97473.35
2023-03-14T10:13:09.639Z,97475.93
2023-03-14T10:15:38.497Z,97460.02
2023-03-14T10:18:14.966Z,97458.72
2023-03-14T10:20:47.369Z,97446.76
2023-03-14T10:23:18.295Z,97438.13
2023-03-14T10:26:01.641Z,97447.66
2023-03-14T10:28:41.486Z,97460.84
2023-03-14T10:31:11.737Z,97451.91
2023-03-14T10:33:40.528Z,97454.86
2023-03-14T10:36:41.316Z,97457.18
2023-03-14T10:39:30.244Z,97451.42
2023-03-14T10:42:25.122Z,97455.11
2023-03-14T10:44:58.368Z,97456.27
2023-03-14T10:47:29.567Z,97459.71
2023-03-14T10:49:58.683Z,97452.80
2023-03-14T10:52:50.952Z,97465.42
2023-03-14T10:55:19.936Z,97456.42
2023-03-14T10:57:48.006Z,97458.65
2023-03-14T11:00:18.138Z,97451.95
2023-03-14T11:02:56.358Z,97436.50
2023-03-14T11:05:54.508Z,97439.70
2023-03-14T11:08:42.473Z,97437.36
2023-03-14T11:11:22.937Z,97445.10
2023-03-14T11:14:22.157Z,97444.38
2023-03-14T11:17:14.480Z,97434.02
2023-03-14T11:20:30.424Z,97431.34
2023-03-14T11:23:19.001Z,97428.48
2023-03-14T11:26:34.376Z,97428.46
2023-03-14T11:29:30.475Z,97430.42
2023-03-14T11:32:00.954Z,97423.39
2023-03-14T11:34:33.524Z,97426.02
2023-03-14T11:37:13.137Z,97398.03
2023-03-14T11:39:43.423Z,97376.16
2023-03-14T11:42:17.707Z,97371.69
2023-03-14T11:44:49.091Z,97371.77
2023-03-14T11:47:21.680Z,97383.54
2023-03-14T11:49:52.061Z,97396.13
2023-03-14T11:52:52.353Z,97390.98
2023-03-14T11:55:41.201Z,97392.64
2023-03-14T11:58:29.562Z,97383.96
2023-03-14T12:00:58.322Z,97383.33
2023-03-14T12:03:53.821Z,97381.95
2023-03-14T12:06:26.338Z,97390.70
2023-03-14T12:08:59.375Z,97394.77
2023-03-14T12:11:39.596Z,97402.27
2023-03-14T12:14:21.017Z,97403.30
2023-03-14T12:16:49.662Z,97404.96
2023-03-14T12:19:24.067Z,97406.13
2023-03-14T12:22:13.676Z,97402.77
2023-03-14T12:24:48.714Z,97395.15
2023-03-14T12:27:45.745Z,97397.63
2023-03-14T12:30:25.998Z,97376.18
2023-03-14T12:33:09.848Z,97370.25
2023-03-14T12:35:40.676Z,97368.91
2023-03-14T12:38:36.345Z,97357.65
2023-03-14T12:41:21.283Z,97359.48
2023-03-14T12:43:49.559Z,97351.70
2023-03-14T12:46:27.856Z,97357.41
2023-03-14T12:49:01.894Z,97354.61
2023-03-14T12:51:38.993Z,97356.12
2023-03-14T12:54:12.648Z,97361.42
2023-03-14T12:57:27.412Z,97355.86
2023-03-14T12:59:59.425Z,97350.95
2023-03-14T13:02:39.051Z,97348.27
2023-03-14T13:05:14.043Z,97346.39
2023-03-14T13:07:44.383Z,97351.52
2023-03-14T13:10:12.547Z,97357.21
2023-03-14T13:12:52.739Z,97353.23
2023-03-14T13:15:25.255Z,97352.21
2023-03-14T13:17:58.044Z,97349.88
2023-03-14T13:20:37.038Z,97362.33
2023-03-14T13:23:05.841Z,97351.04
2023-03-14T13:25:38.157Z,97347.27
2023-03-14T13:28:07.587Z,97345.02
2023-03-14T13:30:40.633Z,97347.31
2023-03-14T13:33:13.929Z,97350.17
2023-03-14T13:35:47.604Z,97355.08
2023-03-14T13:38:21.308Z,97352.33
2023-03-14T13:40:50.220Z,97346.61
2023-03-14T13:43:26.412Z,97341.41
2023-03-14T13:46:20.330Z,97340.11
2023-03-14T13:49:19.606Z,97342.96
2023-03-14T13:52:54.487Z,97335.08
2023-03-14T13:55:31.429Z,97352.59
2023-03-14T13:57:59.785Z,97335.08
2023-03-14T14:00:44.533Z,97333.04
2023-03-14T14:03:42.604Z,97330.77
2023-03-14T14:06:30.768Z,97321.84
2023-03-14T14:09:07.587Z,97323.73
2023-03-14T14:15:06.084Z,97321.98
2023-03-14T14:17:38.132Z,97316.72
2023-03-14T14:20:35.907Z,97307.11
2023-03-14T14:23:06.111Z,97306.23
2023-03-14T14:25:34.371Z,97307.71
2023-03-14T14:28:26.581Z,97306.64
2023-03-14T14:31:10.030Z,97302.25
2023-03-14T14:33:46.790Z,97310.64
2023-03-14T14:36:21.085Z,97313.13
2023-03-14T14:39:11.881Z,97313.04
2023-03-14T14:41:41.916Z,97314.29
2023-03-14T14:44:13.384Z,97312.58
2023-03-14T14:46:42.128Z,97318.34
2023-03-14T14:49:12.673Z,97314.61
2023-03-14T14:51:50.295Z,97316.95
2023-03-14T14:54:19.946Z,97326.11
2023-03-14T14:56:53.813Z,97327.52
2023-03-14T14:59:28.698Z,97319.91
2023-03-14T15:02:02.206Z,97321.81
2023-03-14T15:04:33.658Z,97325.33
2023-03-14T15:07:02.641Z,97327.64
2023-03-14T15:09:31.851Z,97333.40
2023-03-14T15:12:00.037Z,97329.46
2023-03-14T15:14:28.206Z,97331.93
2023-03-14T15:17:01.184Z,97329.48
2023-03-14T15:19:33.627Z,97327.64
2023-03-14T15:22:02.055Z,97325.89
2023-03-14T15:24:30.395Z,97330.16
2023-03-14T15:27:04.552Z,97332.69
2023-03-14T15:29:37.891Z,97331.59
2023-03-14T15:32:28.396Z,97332.43
2023-03-14T15:35:00.012Z,97337.66
2023-03-14T15:37:28.474Z,97341.55
2023-03-14T15:39:59.021Z,97346.91
2023-03-14T15:42:47.525Z,97351.06
2023-03-14T15:45:16.624Z,97352.08
2023-03-14T15:47:45.069Z,97354.95
2023-03-14T15:50:13.325Z,97355.98
2023-03-14T15:52:42.550Z,97357.39
2023-03-14T15:55:10.850Z,97361.01
2023-03-14T15:57:46.623Z,97364.28
2023-03-14T16:00:19.031Z,97369.33
2023-03-14T16:02:47.395Z,97368.96
2023-03-14T16:05:15.906Z,97368.55
2023-03-14T16:07:44.770Z,97373.98
2023-03-14T16:10:13.745Z,97369.34
2023-03-14T16:12:43.188Z,97368.00
2023-03-14T16:15:11.687Z,97363.42
2023-03-14T16:17:41.384Z,97369.06
2023-03-14T16:20:10.265Z,97366.08
2023-03-14T16:22:38.839Z,97368.65
2023-03-14T16:25:07.940Z,97368.15
2023-03-14T16:27:36.686Z,97365.81
2023-03-14T16:30:05.735Z,97368.59
2023-03-14T16:32:34.699Z,97368.99
2023-03-14T16:35:03.326Z,97365.66
2023-03-14T16:37:34.874Z,97371.67
2023-03-14T16:43:14.517Z,97377.35
2023-03-14T16:45:41.318Z,97371.11
2023-03-14T16:48:09.612Z,97370.59
2023-03-14T16:50:40.678Z,97368.30
2023-03-14T16:53:11.644Z,97373.25
2023-03-14T16:55:43.044Z,97375.96
2023-03-14T16:58:12.054Z,97378.46
2023-03-14T17:00:47.802Z,97382.44
2023-03-14T17:03:17.046Z,97384.89
2023-03-14T17:05:50.364Z,97387.02
2023-03-14T17:08:20.481Z,97392.25
2023-03-14T17:10:48.894Z,97387.17
2023-03-14T17:13:17.237Z,97391.41
2023-03-14T17:15:48.994Z,97384.30
2023-03-14T17:18:17.816Z,97382.83
2023-03-14T17:20:47.439Z,97386.55
2023-03-14T17:23:17.164Z,97387.76
2023-03-14T17:25:49.024Z,97387.23
2023-03-14T17:28:20.792Z,97390.27
2023-03-14T17:30:49.488Z,97393.31
2023-03-14T17:33:17.875Z,97394.91
2023-03-14T17:35:46.528Z,97394.39
2023-03-14T17:38:15.432Z,97392.96
2023-03-14T17:40:48.941Z,97390.02
2023-03-14T17:43:18.000Z,97387.16
2023-03-14T17:45:47.140Z,97387.88
2023-03-14T17:48:16.308Z,97389.64
2023-03-14T17:50:44.619Z,97387.83
2023-03-14T17:53:13.610Z,97389.91
2023-03-14T17:55:42.428Z,97387.23
2023-03-14T17:58:12.991Z,97389.08
2023-03-14T18:00:42.804Z,97392.30
2023-03-14T18:03:12.030Z,97395.56
2023-03-14T18:05:40.908Z,97395.17
2023-03-14T18:08:12.676Z,97390.95
2023-03-14T18:10:41.564Z,97388.21
2023-03-14T18:13:10.470Z,97387.85
2023-03-14T18:15:39.004Z,97390.36
2023-03-14T18:18:10.982Z,97388.77
2023-03-14T18:20:41.373Z,97385.27
2023-03-14T18:23:10.221Z,97384.49
2023-03-14T18:25:41.130Z,97386.45
2023-03-14T18:28:10.132Z,97383.56
2023-03-14T18:30:41.874Z,97384.96
2023-03-14T18:33:13.337Z,97386.86
2023-03-14T18:35:41.954Z,97385.52
2023-03-14T18:38:10.852Z,97384.19
2023-03-14T18:40:39.354Z,97377.46
2023-03-14T18:43:12.139Z,97383.58
2023-03-14T18:45:41.495Z,97382.63
2023-03-14T18:48:12.709Z,97384.27
2023-03-14T18:50:46.073Z,97384.40
2023-03-14T18:53:15.266Z,97383.73
2023-03-14T18:55:43.590Z,97381.55
2023-03-14T18:58:11.758Z,97384.66
2023-03-14T19:00:41.534Z,97380.27
2023-03-14T19:03:09.945Z,97379.09
2023-03-14T19:05:43.931Z,97379.88
2023-03-14T19:08:14.932Z,97377.63
2023-03-14T19:10:46.672Z,97373.58
2023-03-14T19:13:19.028Z,97369.69
2023-03-14T19:15:47.554Z,97369.48
2023-03-14T19:18:16.099Z,97362.13
2023-03-14T19:21:08.796Z,97369.08
2023-03-14T19:23:39.125Z,97368.31
2023-03-14T19:26:07.404Z,97367.16
2023-03-14T19:28:37.333Z,97368.47
2023-03-14T19:31:05.928Z,97368.59
2023-03-14T19:33:38.890Z,97367.45
2023-03-14T19:36:08.669Z,97367.73
2023-03-14T19:38:36.974Z,97371.29
2023-03-14T19:41:05.424Z,97368.88
2023-03-14T19:43:34.350Z,97370.80
2023-03-14T19:46:06.348Z,97373.48
2023-03-14T19:48:34.873Z,97375.77
2023-03-14T19:51:11.460Z,97371.94
2023-03-14T19:53:44.346Z,97371.66
2023-03-14T19:56:12.800Z,97368.30
2023-03-14T19:58:42.677Z,97377.65
2023-03-14T20:01:13.059Z,97375.65
2023-03-14T20:03:41.651Z,97374.39
2023-03-14T20:06:13.275Z,97373.54
2023-03-14T20:08:43.429Z,97368.50
2023-03-14T20:11:13.492Z,97369.10
2023-03-14T20:13:45.225Z,97371.67
2023-03-14T20:16:13.457Z,97376.88
2023-03-14T20:18:53.898Z,97371.83
2023-03-14T20:21:22.278Z,97372.22
2023-03-14T20:23:52.184Z,97375.56
2023-03-14T20:26:21.705Z,97373.50
2023-03-14T20:28:49.888Z,97374.83
2023-03-14T20:31:18.890Z,97379.03
2023-03-14T20:33:47.138Z,97377.66
2023-03-14T20:36:15.628Z,97377.45
2023-03-14T20:38:45.509Z,97378.73
2023-03-14T20:41:13.685Z,97377.81
2023-03-14T20:43:42.094Z,97379.71
2023-03-14T20:46:10.945Z,97380.66
2023-03-14T20:48:41.809Z,97375.52
2023-03-14T20:51:11.658Z,97371.48
2023-03-14T20:53:40.521Z,97368.31
2023-03-14T20:56:09.170Z,97365.45
2023-03-14T20:58:37.403Z,97366.73
2023-03-14T21:01:06.032Z,97362.52
2023-03-14T21:03:34.382Z,97362.84
2023-03-14T21:06:02.519Z,97359.54
2023-03-14T21:08:30.880Z,97364.15
2023-03-14T21:10:59.685Z,97359.83
2023-03-14T21:13:28.128Z,97358.99
2023-03-14T21:16:01.847Z,97352.70
2023-03-14T21:18:31.600Z,97353.94
2023-03-14T21:21:03.466Z,97361.17
2023-03-14T21:23:34.589Z,97362.80
2023-03-14T21:26:02.946Z,97360.06
2023-03-14T21:28:32.133Z,97358.92
2023-03-14T21:31:07.341Z,97365.02
2023-03-14T21:33:37.403Z,97364.35
2023-03-14T21:36:07.713Z,97366.60
2023-03-14T21:38:36.004Z,97365.14
2023-03-14T21:41:06.901Z,97353.45
2023-03-14T21:43:35.713Z,97352.52
2023-03-14T21:46:06.833Z,97351.56
2023-03-14T21:48:34.943Z,97349.74
2023-03-14T21:52:46.363Z,97350.23
2023-03-14T21:55:17.633Z,97353.06
2023-03-14T21:57:46.556Z,97365.29
2023-03-14T22:00:19.908Z,97371.20
2023-03-14T22:02:58.391Z,97376.52
2023-03-14T22:05:37.540Z,97376.81
2023-03-14T22:08:06.721Z,97376.66
2023-03-14T22:10:34.929Z,97377.52
2023-03-14T22:13:02.961Z,97380.23
2023-03-14T22:15:32.085Z,97378.33
2023-03-14T22:18:00.910Z,97374.86
2023-03-14T22:20:29.487Z,97376.21
2023-03-14T22:22:58.214Z,97380.70
2023-03-14T22:25:26.593Z,97380.63
2023-03-14T22:27:55.279Z,97379.52
2023-03-14T22:30:23.665Z,97374.40
2023-03-14T22:32:52.625Z,97370.52
2023-03-14T22:35:20.768Z,97378.31
2023-03-14T22:37:49.235Z,97375.85
2023-03-14T22:40:19.707Z,97377.94
2023-03-14T22:42:48.496Z,97378.81
2023-03-14T22:45:16.848Z,97381.90
2023-03-14T22:47:45.022Z,97384.55
2023-03-14T22:50:19.896Z,97390.02
2023-03-14T22:52:48.820Z,97389.18
2023-03-14T22:55:17.358Z,97391.81
2023-03-14T22:57:45.581Z,97393.67
2023-03-14T23:00:17.012Z,97389.00
2023-03-14T23:02:49.458Z,97391.98
2023-03-14T23:05:18.016Z,97388.65
2023-03-14T23:07:46.114Z,97388.05
2023-03-14T23:10:18.051Z,97396.86
2023-03-14T23:12:46.509Z,97394.23
2023-03-14T23:15:17.833Z,97400.27
2023-03-14T23:17:46.997Z,97406.99
2023-03-14T23:20:15.166Z,97407.79
2023-03-14T23:22:43.704Z,97409.19
2023-03-14T23:25:11.767Z,97408.20
2023-03-14T23:27:39.944Z,97411.88
2023-03-14T23:30:10.494Z,97411.39
2023-03-14T23:32:38.897Z,97414.73
2023-03-14T23:35:08.224Z,97411.73
2023-03-14T23:37:37.717Z,97412.18
2023-03-14T23:40:06.571Z,97414.38
2023-03-14T23:42:35.479Z,97414.02
2023-03-14T23:45:05.421Z,97414.63
2023-03-14T23:47:34.274Z,97414.77
2023-03-14T23:50:03.221Z,97417.30
2023-03-14T23:52:37.977Z,97419.73
2023-03-14T23:55:06.408Z,97423.39
2023-03-14T23:57:34.536Z,97428.55
